sensor_id;sensor_type;location;lat;lon;timestamp;pressure;altitude;pressure_sealevel;temperature;humidity
8280;BME280;8335;42.646;23.380;2023-06-10T00:00:20;146025.09;;;18.04;100.00
8280;BME280;8335;42.646;23.380;2023-06-10T00:02:48;146032.59;;;18.07;100.00
8280;BME280;8335;42.646;23.380;2023-06-10T00:05:16;145963.88;;;17.79;100.00
8280;BME280;8335;42.646;23.380;2023-06-10T00:07:46;146026.34;;;18.04;100.00
8280;BME280;8335;42.646;23.380;2023-06-10T00:10:13;146028.84;;;18.05;100.00
8280;BME280;8335;42.646;23.380;2023-06-10T00:12:41;146028.84;;;18.05;100.00
8280;BME280;8335;42.646;23.380;2023-06-10T00:15:09;146032.59;;;18.07;100.00
8280;BME280;8335;42.646;23.380;2023-06-10T00:17:36;146027.59;;;18.05;100.00
8280;BME280;8335;42.646;23.380;2023-06-10T00:20:06;146022.63;;;18.03;100.00
8280;BME280;8335;42.646;23.380;2023-06-10T00:22:37;146023.84;;;18.03;100.00
8280;BME280;8335;42.646;23.380;2023-06-10T00:25:05;146023.84;;;18.03;100.00
8280;BME280;8335;42.646;23.380;2023-06-10T00:27:32;146018.88;;;18.01;100.00
8280;BME280;8335;42.646;23.380;2023-06-10T00:30:01;146005.09;;;17.96;100.00
8280;BME280;8335;42.646;23.380;2023-06-10T00:32:29;145998.88;;;17.93;100.00
8280;BME280;8335;42.646;23.380;2023-06-10T00:34:56;145947.63;;;17.72;100.00
8280;BME280;8335;42.646;23.380;2023-06-10T00:37:23;145987.59;;;17.88;100.00
8280;BME280;8335;42.646;23.380;2023-06-10T00:39:51;145992.59;;;17.91;100.00
8280;BME280;8335;42.646;23.380;2023-06-10T00:42:18;145983.88;;;17.87;100.00
8280;BME280;8335;42.646;23.380;2023-06-10T00:44:46;145990.09;;;17.90;100.00
8280;BME280;8335;42.646;23.380;2023-06-10T00:47:13;145988.84;;;17.89;100.00
8280;BME280;8335;42.646;23.380;2023-06-10T00:49:40;145992.59;;;17.91;100.00
8280;BME280;8335;42.646;23.380;2023-06-10T00:52:08;145992.59;;;17.91;100.00
8280;BME280;8335;42.646;23.380;2023-06-10T00:54:36;145990.09;;;17.90;100.00
8280;BME280;8335;42.646;23.380;2023-06-10T00:57:05;145988.84;;;17.89;100.00
8280;BME280;8335;42.646;23.380;2023-06-10T00:59:32;145981.38;;;17.86;100.00
8280;BME280;8335;42.646;23.380;2023-06-10T01:01:59;145977.59;;;17.84;100.00
8280;BME280;8335;42.646;23.380;2023-06-10T01:04:27;145975.09;;;17.83;100.00
8280;BME280;8335;42.646;23.380;2023-06-10T01:07:00;145970.09;;;17.81;100.00
8280;BME280;8335;42.646;23.380;2023-06-10T01:09:32;145970.09;;;17.81;100.00
8280;BME280;8335;42.646;23.380;2023-06-10T01:12:08;145961.34;;;17.78;100.00
8280;BME280;8335;42.646;23.380;2023-06-10T01:14:36;145958.84;;;17.77;100.00
8280;BME280;8335;42.646;23.380;2023-06-10T01:17:04;145960.09;;;17.77;100.00
8280;BME280;8335;42.646;23.380;2023-06-10T01:19:32;145960.09;;;17.77;100.00
8280;BME280;8335;42.646;23.380;2023-06-10T01:22:00;145962.56;;;17.78;100.00
8280;BME280;8335;42.646;23.380;2023-06-10T01:24:27;145961.34;;;17.78;100.00
8280;BME280;8335;42.646;23.380;2023-06-10T01:27:00;145961.34;;;17.78;100.00
8280;BME280;8335;42.646;23.380;2023-06-10T01:29:31;145960.09;;;17.77;100.00
8280;BME280;8335;42.646;23.380;2023-06-10T01:32:05;145958.84;;;17.77;100.00
8280;BME280;8335;42.646;23.380;2023-06-10T01:34:35;145963.88;;;17.79;100.00
8280;BME280;8335;42.646;23.380;2023-06-10T01:37:04;145958.84;;;17.77;100.00
8280;BME280;8335;42.646;23.380;2023-06-10T01:39:32;145960.09;;;17.77;100.00
8280;BME280;8335;42.646;23.380;2023-06-10T01:41:59;145963.88;;;17.79;100.00
8280;BME280;8335;42.646;23.380;2023-06-10T01:44:27;145956.34;;;17.76;100.00
8280;BME280;8335;42.646;23.380;2023-06-10T01:46:54;145960.09;;;17.77;100.00
8280;BME280;8335;42.646;23.380;2023-06-10T01:49:21;145967.63;;;17.80;100.00
8280;BME280;8335;42.646;23.380;2023-06-10T01:51:49;145971.34;;;17.82;100.00
8280;BME280;8335;42.646;23.380;2023-06-10T01:54:17;145973.84;;;17.83;100.00
8280;BME280;8335;42.646;23.380;2023-06-10T01:56:44;145967.63;;;17.80;100.00
8280;BME280;8335;42.646;23.380;2023-06-10T01:59:11;145970.09;;;17.81;100.00
8280;BME280;8335;42.646;23.380;2023-06-10T02:01:37;145978.84;;;17.85;100.00
8280;BME280;8335;42.646;23.380;2023-06-10T02:04:04;145982.63;;;17.86;100.00
8280;BME280;8335;42.646;23.380;2023-06-10T02:06:31;145986.34;;;17.88;100.00
8280;BME280;8335;42.646;23.380;2023-06-10T02:08:58;145988.84;;;17.89;100.00
8280;BME280;8335;42.646;23.380;2023-06-10T02:11:26;145986.34;;;17.88;100.00
8280;BME280;8335;42.646;23.380;2023-06-10T02:13:53;145990.09;;;17.90;100.00
8280;BME280;8335;42.646;23.380;2023-06-10T02:16:20;145958.84;;;17.77;100.00
8280;BME280;8335;42.646;23.380;2023-06-10T02:18:47;145997.59;;;17.93;100.00
8280;BME280;8335;42.646;23.380;2023-06-10T02:21:14;145991.34;;;17.90;100.00
8280;BME280;8335;42.646;23.380;2023-06-10T02:23:40;145996.34;;;17.92;100.00
8280;BME280;8335;42.646;23.380;2023-06-10T02:26:07;145996.34;;;17.92;100.00
8280;BME280;8335;42.646;23.380;2023-06-10T02:28:35;145992.59;;;17.91;100.00
8280;BME280;8335;42.646;23.380;2023-06-10T02:31:02;145997.59;;;17.93;100.00
8280;BME280;8335;42.646;23.380;2023-06-10T02:33:29;146001.38;;;17.94;100.00
8280;BME280;8335;42.646;23.380;2023-06-10T02:35:56;145995.09;;;17.92;100.00
8280;BME280;8335;42.646;23.380;2023-06-10T02:38:23;146002.63;;;17.95;100.00
8280;BME280;8335;42.646;23.380;2023-06-10T02:40:49;146000.13;;;17.94;100.00
8280;BME280;8335;42.646;23.380;2023-06-10T02:43:16;145996.34;;;17.92;100.00
8280;BME280;8335;42.646;23.380;2023-06-10T02:45:44;145998.88;;;17.93;100.00
8280;BME280;8335;42.646;23.380;2023-06-10T02:48:11;145986.34;;;17.88;100.00
8280;BME280;8335;42.646;23.380;2023-06-10T02:50:38;145958.84;;;17.77;100.00
8280;BME280;8335;42.646;23.380;2023-06-10T02:53:05;145940.03;;;17.69;100.00
8280;BME280;8335;42.646;23.380;2023-06-10T02:55:32;145921.28;;;17.61;100.00
8280;BME280;8335;42.646;23.380;2023-06-10T02:58:00;145922.53;;;17.62;100.00
8280;BME280;8335;42.646;23.380;2023-06-10T03:00:28;145896.31;;;17.51;100.00
8280;BME280;8335;42.646;23.380;2023-06-10T03:02:56;145896.31;;;17.51;100.00
8280;BME280;8335;42.646;23.380;2023-06-10T03:05:23;145893.81;;;17.50;100.00
8280;BME280;8335;42.646;23.380;2023-06-10T03:07:50;145912.56;;;17.58;100.00
8280;BME280;8335;42.646;23.380;2023-06-10T03:10:17;145912.56;;;17.58;100.00
8280;BME280;8335;42.646;23.380;2023-06-10T03:12:44;145921.28;;;17.61;100.00
8280;BME280;8335;42.646;23.380;2023-06-10T03:15:10;145925.03;;;17.63;100.00
8280;BME280;8335;42.646;23.380;2023-06-10T03:17:37;145937.56;;;17.68;100.00
8280;BME280;8335;42.646;23.380;2023-06-10T03:20:07;145943.81;;;17.71;100.00
8280;BME280;8335;42.646;23.380;2023-06-10T03:22:36;145926.28;;;17.64;100.00
8280;BME280;8335;42.646;23.380;2023-06-10T03:25:04;145957.59;;;17.76;100.00
8280;BME280;8335;42.646;23.380;2023-06-10T03:27:31;145967.63;;;17.80;100.00
8280;BME280;8335;42.646;23.380;2023-06-10T03:29:58;145980.09;;;17.85;100.00
8280;BME280;8335;42.646;23.380;2023-06-10T03:32:25;145993.84;;;17.91;100.00
8280;BME280;8335;42.646;23.380;2023-06-10T03:34:52;145998.88;;;17.93;100.00
8280;BME280;8335;42.646;23.380;2023-06-10T03:37:23;146003.88;;;17.95;100.00
8280;BME280;8335;42.646;23.380;2023-06-10T03:39:50;146000.13;;;17.94;100.00
8280;BME280;8335;42.646;23.380;2023-06-10T03:42:17;146000.13;;;17.94;100.00
8280;BME280;8335;42.646;23.380;2023-06-10T03:44:43;146003.88;;;17.95;100.00
8280;BME280;8335;42.646;23.380;2023-06-10T03:47:10;146003.88;;;17.95;100.00
8280;BME280;8335;42.646;23.380;2023-06-10T03:49:38;146017.63;;;18.01;100.00
8280;BME280;8335;42.646;23.380;2023-06-10T03:52:06;146025.09;;;18.04;100.00
8280;BME280;8335;42.646;23.380;2023-06-10T03:54:34;146020.13;;;18.02;100.00
8280;BME280;8335;42.646;23.380;2023-06-10T03:57:01;146013.84;;;17.99;100.00
8280;BME280;8335;42.646;23.380;2023-06-10T03:59:28;145988.84;;;17.89;100.00
8280;BME280;8335;42.646;23.380;2023-06-10T04:01:55;145950.09;;;17.73;100.00
8280;BME280;8335;42.646;23.380;2023-06-10T04:04:23;145938.78;;;17.69;100.00
8280;BME280;8335;42.646;23.380;2023-06-10T04:06:49;145948.88;;;17.73;100.00
8280;BME280;8335;42.646;23.380;2023-06-10T04:09:16;145945.06;;;17.71;100.00
8280;BME280;8335;42.646;23.380;2023-06-10T04:11:44;145940.03;;;17.69;100.00
8280;BME280;8335;42.646;23.380;2023-06-10T04:14:11;145933.81;;;17.67;100.00
8280;BME280;8335;42.646;23.380;2023-06-10T04:16:39;145926.28;;;17.64;100.00
8280;BME280;8335;42.646;23.380;2023-06-10T04:19:06;145893.81;;;17.50;100.00
8280;BME280;8335;42.646;23.380;2023-06-10T04:21:32;145922.53;;;17.62;100.00
8280;BME280;8335;42.646;23.380;2023-06-10T04:23:59;145928.81;;;17.65;100.00
8280;BME280;8335;42.646;23.380;2023-06-10T04:26:27;145917.56;;;17.60;100.00
8280;BME280;8335;42.646;23.380;2023-06-10T04:28:55;145921.28;;;17.61;100.00
8280;BME280;8335;42.646;23.380;2023-06-10T04:31:22;145933.81;;;17.67;100.00
8280;BME280;8335;42.646;23.380;2023-06-10T04:33:48;145942.53;;;17.70;100.00
8280;BME280;8335;42.646;23.380;2023-06-10T04:36:15;145941.28;;;17.70;100.00
8280;BME280;8335;42.646;23.380;2023-06-10T04:38:42;145935.06;;;17.67;100.00
8280;BME280;8335;42.646;23.380;2023-06-10T04:41:09;145920.06;;;17.61;100.00
8280;BME280;8335;42.646;23.380;2023-06-10T04:43:35;145912.56;;;17.58;100.00
8280;BME280;8335;42.646;23.380;2023-06-10T04:46:04;145920.06;;;17.61;100.00
8280;BME280;8335;42.646;23.380;2023-06-10T04:48:31;145895.06;;;17.51;100.00
8280;BME280;8335;42.646;23.380;2023-06-10T04:51:00;145896.31;;;17.51;100.00
8280;BME280;8335;42.646;23.380;2023-06-10T04:53:27;145912.56;;;17.58;100.00
8280;BME280;8335;42.646;23.380;2023-06-10T04:55:55;145916.31;;;17.59;100.00
8280;BME280;8335;42.646;23.380;2023-06-10T04:58:22;145926.28;;;17.64;100.00
8280;BME280;8335;42.646;23.380;2023-06-10T05:00:49;145927.53;;;17.64;100.00
8280;BME280;8335;42.646;23.380;2023-06-10T05:03:17;145952.59;;;17.74;100.00
8280;BME280;8335;42.646;23.380;2023-06-10T05:05:44;145960.09;;;17.77;100.00
8280;BME280;8335;42.646;23.380;2023-06-10T05:08:11;145978.84;;;17.85;100.00
8280;BME280;8335;42.646;23.380;2023-06-10T05:10:38;145995.09;;;17.92;100.00
8280;BME280;8335;42.646;23.380;2023-06-10T05:13:04;146005.09;;;17.96;100.00
8280;BME280;8335;42.646;23.380;2023-06-10T05:15:31;146030.09;;;18.06;100.00
8280;BME280;8335;42.646;23.380;2023-06-10T05:17:58;146055.13;;;18.16;100.00
8280;BME280;8335;42.646;23.380;2023-06-10T05:20:26;146076.38;;;18.25;100.00
8280;BME280;8335;42.646;23.380;2023-06-10T05:22:54;146100.13;;;18.34;100.00
8280;BME280;8335;42.646;23.380;2023-06-10T05:25:21;146121.38;;;18.43;100.00
8280;BME280;8335;42.646;23.380;2023-06-10T05:27:48;146147.66;;;18.54;100.00
8280;BME280;8335;42.646;23.380;2023-06-10T05:30:14;146179.00;;;18.66;100.00
8280;BME280;8335;42.646;23.380;2023-06-10T05:32:42;146204.00;;;18.77;100.00
8280;BME280;8335;42.646;23.380;2023-06-10T05:35:08;146237.78;;;18.90;100.00
8280;BME280;8335;42.646;23.380;2023-06-10T05:37:37;146269.06;;;19.03;100.00
8280;BME280;8335;42.646;23.380;2023-06-10T05:40:04;146307.84;;;19.19;100.00
8280;BME280;8335;42.646;23.380;2023-06-10T05:42:31;146316.63;;;19.22;100.00
8280;BME280;8335;42.646;23.380;2023-06-10T05:44:58;146352.91;;;19.37;100.00
8280;BME280;8335;42.646;23.380;2023-06-10T05:47:25;146382.91;;;19.49;100.00
8280;BME280;8335;42.646;23.380;2023-06-10T05:49:51;146396.69;;;19.55;100.00
8280;BME280;8335;42.646;23.380;2023-06-10T05:52:18;146438.09;;;19.72;100.00
8280;BME280;8335;42.646;23.380;2023-06-10T05:54:46;146465.59;;;19.83;100.00
8280;BME280;8335;42.646;23.380;2023-06-10T05:57:13;146491.91;;;19.94;100.00
8280;BME280;8335;42.646;23.380;2023-06-10T05:59:40;146523.19;;;20.06;100.00
8280;BME280;8335;42.646;23.380;2023-06-10T06:02:07;146559.50;;;20.21;100.00
8280;BME280;8335;42.646;23.380;2023-06-10T06:04:34;146620.94;;;20.46;100.00
8280;BME280;8335;42.646;23.380;2023-06-10T06:07:01;146678.53;;;20.70;100.00
8280;BME280;8335;42.646;23.380;2023-06-10T06:09:27;146716.13;;;20.85;100.00
8280;BME280;8335;42.646;23.380;2023-06-10T06:11:55;146747.44;;;20.98;100.00
8280;BME280;8335;42.646;23.380;2023-06-10T06:14:22;146760.00;;;21.03;100.00
8280;BME280;8335;42.646;23.380;2023-06-10T06:16:49;146776.28;;;21.09;100.00
8280;BME280;8335;42.646;23.380;2023-06-10T06:19:16;146791.34;;;21.15;100.00
8280;BME280;8335;42.646;23.380;2023-06-10T06:21:43;146791.34;;;21.15;100.00
8280;BME280;8335;42.646;23.380;2023-06-10T06:24:09;146811.38;;;21.24;100.00
8280;BME280;8335;42.646;23.380;2023-06-10T06:26:36;146806.31;;;21.22;100.00
8280;BME280;8335;42.646;23.380;2023-06-10T06:29:04;146823.91;;;21.29;100.00
8280;BME280;8335;42.646;23.380;2023-06-10T06:31:31;146818.88;;;21.27;100.00
8280;BME280;8335;42.646;23.380;2023-06-10T06:33:58;146847.75;;;21.38;100.00
8280;BME280;8335;42.646;23.380;2023-06-10T06:36:25;146837.72;;;21.34;100.00
8280;BME280;8335;42.646;23.380;2023-06-10T06:38:51;146866.56;;;21.46;100.00
8280;BME280;8335;42.646;23.380;2023-06-10T06:41:18;146889.09;;;21.55;100.00
8280;BME280;8335;42.646;23.380;2023-06-10T06:43:45;146910.41;;;21.64;100.00
8280;BME280;8335;42.646;23.380;2023-06-10T06:46:13;146899.16;;;21.59;100.00
8280;BME280;8335;42.646;23.380;2023-06-10T06:48:41;146940.50;;;21.76;100.00
8280;BME280;8335;42.646;23.380;2023-06-10T06:51:08;146981.88;;;21.93;100.00
8280;BME280;8335;42.646;23.380;2023-06-10T06:53:34;147023.31;;;22.10;100.00
8280;BME280;8335;42.646;23.380;2023-06-10T06:56:02;147039.63;;;22.16;100.00
8280;BME280;8335;42.646;23.380;2023-06-10T06:58:28;147067.19;;;22.28;100.00
8280;BME280;8335;42.646;23.380;2023-06-10T07:00:55;147087.25;;;22.36;100.00
8280;BME280;8335;42.646;23.380;2023-06-10T07:03:23;147079.75;;;22.33;98.39
8280;BME280;8335;42.646;23.380;2023-06-10T07:05:50;147119.88;;;22.49;96.08
8280;BME280;8335;42.646;23.380;2023-06-10T07:08:17;147180.09;;;22.73;94.96
8280;BME280;8335;42.646;23.380;2023-06-10T07:10:44;147245.38;;;23.00;93.41
8280;BME280;8335;42.646;23.380;2023-06-10T07:13:10;147308.13;;;23.25;91.97
8280;BME280;8335;42.646;23.380;2023-06-10T07:15:38;147394.78;;;23.60;91.17
8280;BME280;8335;42.646;23.380;2023-06-10T07:18:05;147472.59;;;23.92;89.70
8280;BME280;8335;42.646;23.380;2023-06-10T07:20:33;147517.81;;;24.10;88.35
8280;BME280;8335;42.646;23.380;2023-06-10T07:23:00;147640.94;;;24.60;85.83
8280;BME280;8335;42.646;23.380;2023-06-10T07:25:27;147814.38;;;25.31;81.79
8280;BME280;8335;42.646;23.380;2023-06-10T07:27:54;147928.78;;;25.77;79.11
8280;BME280;8335;42.646;23.380;2023-06-10T07:30:20;148067.09;;;26.33;78.77
8280;BME280;8335;42.646;23.380;2023-06-10T07:32:47;148279.75;;;27.19;75.52
8280;BME280;8335;42.646;23.380;2023-06-10T07:35:14;148565.59;;;28.35;67.21
8280;BME280;8335;42.646;23.380;2023-06-10T07:37:42;148846.53;;;29.48;60.77
8280;BME280;8335;42.646;23.380;2023-06-10T07:40:09;149096.19;;;30.49;55.04
8280;BME280;8335;42.646;23.380;2023-06-10T07:42:36;149290.50;;;31.28;52.09
8280;BME280;8335;42.646;23.380;2023-06-10T07:45:04;149352.34;;;31.53;50.66
8280;BME280;8335;42.646;23.380;2023-06-10T07:47:32;149362.38;;;31.57;49.48
8280;BME280;8335;42.646;23.380;2023-06-10T07:49:59;149392.69;;;31.69;49.89
8280;BME280;8335;42.646;23.380;2023-06-10T07:52:26;149440.69;;;31.88;50.37
8280;BME280;8335;42.646;23.380;2023-06-10T07:54:55;149473.50;;;32.01;50.03
8280;BME280;8335;42.646;23.380;2023-06-10T07:57:22;149560.66;;;32.37;48.57
8280;BME280;8335;42.646;23.380;2023-06-10T07:59:48;149489.91;;;32.08;46.98
8280;BME280;8335;42.646;23.380;2023-06-10T08:02:15;149623.75;;;32.62;46.27
8280;BME280;8335;42.646;23.380;2023-06-10T08:04:42;149521.44;;;32.21;42.78
8280;BME280;8335;42.646;23.380;2023-06-10T08:07:09;149271.53;;;31.20;45.55
8280;BME280;8335;42.646;23.380;2023-06-10T08:09:35;149207.22;;;30.94;47.98
8280;BME280;8335;42.646;23.380;2023-06-10T08:12:05;149364.91;;;31.58;48.08
8280;BME280;8335;42.646;23.380;2023-06-10T08:14:32;149473.50;;;32.01;46.41
8280;BME280;8335;42.646;23.380;2023-06-10T08:16:59;149642.69;;;32.70;43.79
8280;BME280;8335;42.646;23.380;2023-06-10T08:19:25;149616.19;;;32.59;41.98
8280;BME280;8335;42.646;23.380;2023-06-10T08:21:52;149819.56;;;33.41;40.68
8280;BME280;8335;42.646;23.380;2023-06-10T08:24:19;149871.34;;;33.62;39.44
8280;BME280;8335;42.646;23.380;2023-06-10T08:26:46;149767.72;;;33.20;37.06
8280;BME280;8335;42.646;23.380;2023-06-10T08:29:14;149641.41;;;32.69;37.40
8280;BME280;8335;42.646;23.380;2023-06-10T08:31:41;149541.63;;;32.29;36.51
8280;BME280;8335;42.646;23.380;2023-06-10T08:34:08;149530.28;;;32.24;39.13
8280;BME280;8335;42.646;23.380;2023-06-10T08:36:35;149727.31;;;33.04;38.55
8280;BME280;8335;42.646;23.380;2023-06-10T08:39:02;149985.06;;;34.08;36.38
8280;BME280;8335;42.646;23.380;2023-06-10T08:41:30;150177.22;;;34.85;35.96
8280;BME280;8335;42.646;23.380;2023-06-10T08:44:06;150442.88;;;35.92;33.51
8280;BME280;8335;42.646;23.380;2023-06-10T08:46:36;150649.16;;;36.75;31.46
8280;BME280;8335;42.646;23.380;2023-06-10T08:49:05;150718.81;;;37.03;30.59
8280;BME280;8335;42.646;23.380;2023-06-10T08:51:34;150690.94;;;36.92;29.45
8280;BME280;8335;42.646;23.380;2023-06-10T08:54:02;150813.75;;;37.41;29.01
8280;BME280;8335;42.646;23.380;2023-06-10T08:56:31;150878.31;;;37.67;28.28
8280;BME280;8335;42.646;23.380;2023-06-10T08:59:00;150903.63;;;37.78;27.68
8280;BME280;8335;42.646;23.380;2023-06-10T09:01:27;150925.19;;;37.86;26.54
8280;BME280;8335;42.646;23.380;2023-06-10T09:03:56;150948.00;;;37.95;26.82
8280;BME280;8335;42.646;23.380;2023-06-10T09:06:24;151020.22;;;38.24;26.64
8280;BME280;8335;42.646;23.380;2023-06-10T09:08:52;151064.53;;;38.42;26.07
8280;BME280;8335;42.646;23.380;2023-06-10T09:11:18;151112.66;;;38.62;26.23
8280;BME280;8335;42.646;23.380;2023-06-10T09:13:45;151174.81;;;38.87;26.35
8280;BME280;8335;42.646;23.380;2023-06-10T09:16:12;150994.84;;;38.14;25.56
8280;BME280;8335;42.646;23.380;2023-06-10T09:18:39;150835.25;;;37.50;26.81
8280;BME280;8335;42.646;23.380;2023-06-10T09:21:07;150873.28;;;37.65;26.51
8280;BME280;8335;42.646;23.380;2023-06-10T09:23:35;150747.88;;;37.15;26.42
8280;BME280;8335;42.646;23.380;2023-06-10T09:26:08;150709.91;;;37.00;27.88
8280;BME280;8335;42.646;23.380;2023-06-10T09:28:36;150663.06;;;36.81;28.21
8280;BME280;8335;42.646;23.380;2023-06-10T09:31:05;150528.91;;;36.27;26.13
8280;BME280;8335;42.646;23.380;2023-06-10T09:33:32;150441.63;;;35.92;27.00
8280;BME280;8335;42.646;23.380;2023-06-10T09:36:01;150422.59;;;35.84;27.50
8280;BME280;8335;42.646;23.380;2023-06-10T09:38:34;150186.09;;;34.89;29.55
8280;BME280;8335;42.646;23.380;2023-06-10T09:41:02;150000.25;;;34.14;30.74
8280;BME280;8335;42.646;23.380;2023-06-10T09:43:39;149929.44;;;33.85;31.14
8280;BME280;8335;42.646;23.380;2023-06-10T09:46:06;150052.03;;;34.35;29.88
8280;BME280;8335;42.646;23.380;2023-06-10T09:48:35;150177.22;;;34.85;29.69
8280;BME280;8335;42.646;23.380;2023-06-10T09:51:08;150182.31;;;34.87;29.61
8280;BME280;8335;42.646;23.380;2023-06-10T09:53:37;150162.03;;;34.79;30.11
8280;BME280;8335;42.646;23.380;2023-06-10T09:56:04;150162.03;;;34.79;31.11
8280;BME280;8335;42.646;23.380;2023-06-10T09:58:35;150102.66;;;34.55;31.44
8280;BME280;8335;42.646;23.380;2023-06-10T10:01:06;149935.78;;;33.88;32.04
8280;BME280;8335;42.646;23.380;2023-06-10T10:03:43;149897.88;;;33.73;32.56
8280;BME280;8335;42.646;23.380;2023-06-10T10:06:11;149906.72;;;33.76;32.79
8280;BME280;8335;42.646;23.380;2023-06-10T10:08:39;149737.44;;;33.08;32.99
8280;BME280;8335;42.646;23.380;2023-06-10T10:11:06;149640.16;;;32.69;36.00
8280;BME280;8335;42.646;23.380;2023-06-10T10:13:34;149753.81;;;33.14;33.63
8280;BME280;8335;42.646;23.380;2023-06-10T10:16:04;149805.59;;;33.35;33.29
8280;BME280;8335;42.646;23.380;2023-06-10T10:18:32;149814.50;;;33.39;31.79
8280;BME280;8335;42.646;23.380;2023-06-10T10:21:07;149708.38;;;32.96;33.34
8280;BME280;8335;42.646;23.380;2023-06-10T10:23:43;149602.28;;;32.53;33.88
8280;BME280;8335;42.646;23.380;2023-06-10T10:26:13;149429.31;;;31.84;35.20
8280;BME280;8335;42.646;23.380;2023-06-10T10:28:46;149188.31;;;30.86;36.13
8280;BME280;8335;42.646;23.380;2023-06-10T10:31:16;149139.13;;;30.66;38.08
8280;BME280;8335;42.646;23.380;2023-06-10T10:33:51;149100.00;;;30.51;38.12
8280;BME280;8335;42.646;23.380;2023-06-10T10:36:21;149079.78;;;30.42;37.43
8280;BME280;8335;42.646;23.380;2023-06-10T10:38:50;149116.34;;;30.57;37.58
8280;BME280;8335;42.646;23.380;2023-06-10T10:41:18;149011.75;;;30.15;38.69
8280;BME280;8335;42.646;23.380;2023-06-10T10:43:46;148983.94;;;30.04;37.07
8280;BME280;8335;42.646;23.380;2023-06-10T10:46:15;148878.09;;;29.61;37.75
8280;BME280;8335;42.646;23.380;2023-06-10T10:48:43;148847.78;;;29.49;37.62
8280;BME280;8335;42.646;23.380;2023-06-10T10:51:10;148919.66;;;29.78;37.70
8280;BME280;8335;42.646;23.380;2023-06-10T10:53:37;148903.28;;;29.71;38.66
8280;BME280;8335;42.646;23.380;2023-06-10T10:56:07;148920.91;;;29.78;38.71
8280;BME280;8335;42.646;23.380;2023-06-10T10:58:35;148939.81;;;29.86;41.73
8280;BME280;8335;42.646;23.380;2023-06-10T11:01:10;148895.72;;;29.68;41.20
8280;BME280;8335;42.646;23.380;2023-06-10T11:03:42;148915.88;;;29.76;38.61
8280;BME280;8335;42.646;23.380;2023-06-10T11:06:12;148837.72;;;29.45;40.28
8280;BME280;8335;42.646;23.380;2023-06-10T11:08:46;148633.59;;;28.62;41.44
8280;BME280;8335;42.646;23.380;2023-06-10T11:11:20;148615.97;;;28.55;41.50
8280;BME280;8335;42.646;23.380;2023-06-10T11:14:06;148584.47;;;28.42;42.96
8280;BME280;8335;42.646;23.380;2023-06-10T11:16:39;148527.75;;;28.19;43.33
8280;BME280;8335;42.646;23.380;2023-06-10T11:19:07;148488.75;;;28.04;44.82
8280;BME280;8335;42.646;23.380;2023-06-10T11:21:45;148515.16;;;28.14;44.36
8280;BME280;8335;42.646;23.380;2023-06-10T11:24:24;148547.91;;;28.28;45.74
8280;BME280;8335;42.646;23.380;2023-06-10T11:26:52;148461.03;;;27.92;42.06
8280;BME280;8335;42.646;23.380;2023-06-10T11:29:21;148325.09;;;27.37;42.55
8280;BME280;8335;42.646;23.380;2023-06-10T11:31:51;148303.66;;;27.29;43.65
8280;BME280;8335;42.646;23.380;2023-06-10T11:34:22;148205.50;;;26.89;43.85
8280;BME280;8335;42.646;23.380;2023-06-10T11:36:51;148195.41;;;26.85;44.37
8280;BME280;8335;42.646;23.380;2023-06-10T11:39:19;148250.81;;;27.07;44.22
8280;BME280;8335;42.646;23.380;2023-06-10T11:41:46;148281.03;;;27.20;43.51
8280;BME280;8335;42.646;23.380;2023-06-10T11:44:15;148348.97;;;27.47;45.27
8280;BME280;8335;42.646;23.380;2023-06-10T11:46:42;148432.09;;;27.81;45.02
8280;BME280;8335;42.646;23.380;2023-06-10T11:49:11;148472.38;;;27.97;42.98
8280;BME280;8335;42.646;23.380;2023-06-10T11:51:39;148356.50;;;27.50;43.46
8280;BME280;8335;42.646;23.380;2023-06-10T11:54:14;148309.97;;;27.31;44.27
8280;BME280;8335;42.646;23.380;2023-06-10T11:56:41;148304.97;;;27.29;43.43
8280;BME280;8335;42.646;23.380;2023-06-10T11:59:08;148341.44;;;27.44;44.57
8280;BME280;8335;42.646;23.380;2023-06-10T12:01:37;148417.00;;;27.75;43.08
8280;BME280;8335;42.646;23.380;2023-06-10T12:04:06;148434.63;;;27.82;43.84
8280;BME280;8335;42.646;23.380;2023-06-10T12:06:41;148411.97;;;27.73;43.23
8280;BME280;8335;42.646;23.380;2023-06-10T12:09:14;148432.09;;;27.81;45.44
8280;BME280;8335;42.646;23.380;2023-06-10T12:11:42;148447.22;;;27.87;44.39
8280;BME280;8335;42.646;23.380;2023-06-10T12:14:09;148472.38;;;27.97;43.90
8280;BME280;8335;42.646;23.380;2023-06-10T12:16:37;148451.00;;;27.88;41.89
8280;BME280;8335;42.646;23.380;2023-06-10T12:19:05;148483.72;;;28.02;41.51
8280;BME280;8335;42.646;23.380;2023-06-10T12:21:33;148493.78;;;28.06;40.03
8280;BME280;8335;42.646;23.380;2023-06-10T12:24:08;148444.66;;;27.86;40.09
8280;BME280;8335;42.646;23.380;2023-06-10T12:26:39;148433.38;;;27.81;39.99
8280;BME280;8335;42.646;23.380;2023-06-10T12:29:20;148525.25;;;28.18;39.58
8280;BME280;8335;42.646;23.380;2023-06-10T12:32:00;148580.69;;;28.41;39.34
8280;BME280;8335;42.646;23.380;2023-06-10T12:34:33;148627.31;;;28.60;39.38
8280;BME280;8335;42.646;23.380;2023-06-10T12:37:01;148668.84;;;28.76;38.11
8280;BME280;8335;42.646;23.380;2023-06-10T12:39:29;148713.00;;;28.94;37.88
8280;BME280;8335;42.646;23.380;2023-06-10T12:41:57;148744.47;;;29.07;37.53
8280;BME280;8335;42.646;23.380;2023-06-10T12:44:31;148787.31;;;29.24;37.92
8280;BME280;8335;42.646;23.380;2023-06-10T12:46:59;148831.41;;;29.42;37.36
8280;BME280;8335;42.646;23.380;2023-06-10T12:49:26;148833.91;;;29.43;39.45
8280;BME280;8335;42.646;23.380;2023-06-10T12:51:53;148830.13;;;29.42;37.97
8280;BME280;8335;42.646;23.380;2023-06-10T12:54:20;148852.91;;;29.51;36.97
8280;BME280;8335;42.646;23.380;2023-06-10T12:56:47;148857.94;;;29.53;37.26
8280;BME280;8335;42.646;23.380;2023-06-10T12:59:14;148788.56;;;29.25;37.07